Time;durP1;ratioP1;P1;durP2;ratioP2;P2;SDS_P1;SDS_P2;PMS_P1;PMS_P2;Temp;Humidity;BMP_temperature;BMP_pressure;BME280_temperature;BME280_humidity;BME280_pressure;Samples;Min_cycle;Max_cycle;Signal;HPM_P1;HPM_P2
2022/03/13 00:00:15;;;;;;;24.45;12.80;;;7.20;99.90;;;;;;6218019;23;20016;-79
2022/03/13 00:02:41;;;;;;;25.42;12.35;;;7.20;99.90;;;;;;6220503;23;20024;-79
2022/03/13 00:05:14;;;;;;;22.40;11.30;;;7.30;99.90;;;;;;6196134;23;20348;-79
2022/03/13 00:07:41;;;;;;;23.60;12.05;;;7.40;99.90;;;;;;6221827;23;20083;-79
2022/03/13 00:10:07;;;;;;;23.77;11.75;;;7.50;99.90;;;;;;6220171;23;20012;-80
2022/03/13 00:12:34;;;;;;;20.27;10.95;;;7.60;99.90;;;;;;6220587;23;20014;-79
2022/03/13 00:15:05;;;;;;;26.42;13.48;;;7.60;99.90;;;;;;6220316;23;20019;-79
2022/03/13 00:17:31;;;;;;;20.98;11.43;;;7.70;99.90;;;;;;6248115;23;20024;-79
2022/03/13 00:20:02;;;;;;;23.25;12.25;;;7.80;99.90;;;;;;6220475;23;20461;-79
2022/03/13 00:22:30;;;;;;;24.38;12.15;;;7.70;99.90;;;;;;6248394;23;20016;-79
2022/03/13 00:24:56;;;;;;;21.50;11.50;;;7.80;99.90;;;;;;6221113;23;20255;-79
2022/03/13 00:27:21;;;;;;;21.15;10.88;;;7.80;99.90;;;;;;6247345;23;20019;-79
2022/03/13 00:29:48;;;;;;;21.98;11.32;;;7.90;99.90;;;;;;6221078;23;20091;-79
2022/03/13 00:32:13;;;;;;;20.70;11.75;;;7.90;99.90;;;;;;6247584;22;20015;-79
2022/03/13 00:34:39;;;;;;;19.73;11.63;;;8.00;99.90;;;;;;6245980;22;20397;-79
2022/03/13 00:37:04;;;;;;;19.80;10.85;;;8.00;99.90;;;;;;6249673;23;20004;-79
2022/03/13 00:39:30;;;;;;;25.48;11.27;;;8.00;99.90;;;;;;6196363;23;20016;-79
2022/03/13 00:41:56;;;;;;;19.05;10.25;;;8.00;99.90;;;;;;6221924;23;20074;-79
2022/03/13 00:44:22;;;;;;;21.20;11.43;;;8.00;99.90;;;;;;6220723;23;20024;-79
2022/03/13 00:46:48;;;;;;;22.88;11.00;;;8.10;99.90;;;;;;6221655;23;20012;-79
2022/03/13 00:49:13;;;;;;;22.55;12.00;;;8.10;99.90;;;;;;6247967;22;20016;-79
2022/03/13 00:51:39;;;;;;;17.17;10.07;;;8.10;99.90;;;;;;6220472;23;20441;-79
2022/03/13 00:54:05;;;;;;;18.38;10.43;;;8.10;99.90;;;;;;6222098;23;20012;-79
2022/03/13 00:56:31;;;;;;;20.88;10.80;;;8.10;99.90;;;;;;6221662;23;20026;-79
2022/03/13 00:58:57;;;;;;;19.42;11.18;;;8.20;99.90;;;;;;6195777;23;20016;-79
2022/03/13 01:01:23;;;;;;;19.95;11.35;;;8.20;99.90;;;;;;6247245;22;20444;-79
2022/03/13 01:03:53;;;;;;;16.88;9.82;;;8.20;99.90;;;;;;6223805;23;20027;-79
2022/03/13 01:06:20;;;;;;;18.65;10.95;;;8.10;99.90;;;;;;6223088;23;20012;-79
2022/03/13 01:08:47;;;;;;;18.08;10.40;;;8.10;99.90;;;;;;6249814;22;20017;-79
2022/03/13 01:11:18;;;;;;;22.85;11.07;;;8.10;99.90;;;;;;6249208;23;20020;-79
2022/03/13 01:13:44;;;;;;;21.67;11.05;;;8.10;99.90;;;;;;6222572;23;20100;-80
2022/03/13 01:16:14;;;;;;;17.45;10.65;;;8.10;99.90;;;;;;6195280;23;20012;-79
2022/03/13 01:18:46;;;;;;;23.90;11.82;;;8.00;99.90;;;;;;6242356;23;20143;-79
2022/03/13 01:21:13;;;;;;;18.92;10.52;;;8.10;99.90;;;;;;6218572;23;20016;-79
2022/03/13 01:23:39;;;;;;;20.20;9.88;;;8.10;99.90;;;;;;6167345;23;20459;-79
2022/03/13 01:26:36;;;;;;;21.33;10.70;;;8.10;99.90;;;;;;6217047;23;20425;-79
2022/03/13 01:29:04;;;;;;;19.42;11.23;;;8.10;99.90;;;;;;6189867;23;20091;-79
2022/03/13 01:31:33;;;;;;;20.63;11.65;;;8.10;99.90;;;;;;6189807;23;20458;-80
2022/03/13 01:33:59;;;;;;;19.10;9.73;;;8.10;99.90;;;;;;6165755;23;20017;-80
2022/03/13 01:36:26;;;;;;;18.85;10.48;;;8.10;99.90;;;;;;6217079;23;20013;-79
2022/03/13 01:38:53;;;;;;;18.45;11.05;;;8.20;99.90;;;;;;6190266;23;20092;-79
2022/03/13 01:41:19;;;;;;;21.45;11.63;;;8.10;99.90;;;;;;6216189;23;20012;-79
2022/03/13 01:43:45;;;;;;;19.15;10.60;;;8.20;99.90;;;;;;6165232;23;20450;-79
2022/03/13 01:46:11;;;;;;;18.23;10.25;;;8.20;99.90;;;;;;6190194;23;20008;-80
2022/03/13 01:49:04;;;;;;;17.13;9.57;;;8.20;99.90;;;;;;6190568;23;20063;-79
2022/03/13 01:51:30;;;;;;;;;;;8.30;99.90;;;;;;6190925;23;20013;-80
2022/03/13 01:53:59;;;;;;;17.08;9.52;;;8.30;99.90;;;;;;6193003;23;19923;-79
2022/03/13 01:56:25;;;;;;;22.33;10.55;;;8.30;99.90;;;;;;6191464;23;20423;-79
2022/03/13 01:58:53;;;;;;;20.35;10.60;;;8.40;99.90;;;;;;6216241;23;20017;-79
2022/03/13 02:01:20;;;;;;;18.75;9.63;;;8.40;99.90;;;;;;6164692;23;20331;-80
2022/03/13 02:03:47;;;;;;;19.30;10.80;;;8.40;99.90;;;;;;6188806;23;20025;-79
2022/03/13 02:06:12;;;;;;;17.52;9.77;;;8.40;99.90;;;;;;6189924;23;20013;-79
2022/03/13 02:08:38;;;;;;;15.88;8.98;;;8.50;99.90;;;;;;6216190;23;20024;-79
2022/03/13 02:11:05;;;;;;;20.50;10.48;;;8.50;99.90;;;;;;6216066;23;20017;-79
2022/03/13 02:13:34;;;;;;;21.23;10.75;;;8.50;99.90;;;;;;6215209;23;20048;-79
2022/03/13 02:16:01;;;;;;;17.77;10.25;;;8.50;99.90;;;;;;6189350;23;20319;-79
2022/03/13 02:18:27;;;;;;;20.42;10.35;;;8.50;99.90;;;;;;6215561;23;20016;-79
2022/03/13 02:20:53;;;;;;;20.40;10.32;;;8.50;99.90;;;;;;6215541;23;20079;-79
2022/03/13 02:23:26;;;;;;;19.98;10.50;;;8.50;99.90;;;;;;6164696;23;20657;-79
2022/03/13 02:25:55;;;;;;;21.63;11.75;;;8.40;99.90;;;;;;6190846;23;20017;-79
2022/03/13 02:28:23;;;;;;;17.35;10.45;;;8.40;99.90;;;;;;6167653;23;20456;-79
2022/03/13 02:30:50;;;;;;;17.63;9.90;;;8.40;99.90;;;;;;6191661;23;20023;-79
2022/03/13 02:33:19;;;;;;;19.48;10.43;;;8.40;99.90;;;;;;6167806;23;20473;-79
2022/03/13 02:35:59;;;;;;;18.85;10.60;;;8.50;99.90;;;;;;6192398;23;20017;-79
2022/03/13 02:38:27;;;;;;;19.58;10.35;;;8.50;99.90;;;;;;6192391;23;20068;-80
2022/03/13 02:40:53;;;;;;;20.38;10.52;;;8.50;99.90;;;;;;6218323;23;20040;-79
2022/03/13 02:43:19;;;;;;;18.30;9.50;;;8.50;99.90;;;;;;6191924;23;20012;-79
2022/03/13 02:45:44;;;;;;;21.45;11.30;;;8.50;99.90;;;;;;6192121;23;20047;-79
2022/03/13 02:48:11;;;;;;;18.00;10.00;;;8.50;99.90;;;;;;6168136;23;20016;-79
2022/03/13 02:50:38;;;;;;;25.13;10.57;;;8.50;99.90;;;;;;6191438;23;20095;-79
2022/03/13 02:53:04;;;;;;;19.08;10.45;;;8.50;99.90;;;;;;6217829;23;20012;-79
2022/03/13 02:55:30;;;;;;;20.33;10.88;;;8.40;99.90;;;;;;6191772;23;20023;-79
2022/03/13 02:57:56;;;;;;;17.13;9.35;;;8.40;99.90;;;;;;6190900;23;20425;-79
2022/03/13 03:00:38;;;;;;;19.17;10.45;;;8.30;99.90;;;;;;6191079;23;20009;-79
2022/03/13 03:03:04;;;;;;;17.58;9.98;;;8.30;99.90;;;;;;6218024;23;20040;-79
2022/03/13 03:05:31;;;;;;;19.83;10.07;;;8.30;99.90;;;;;;6167371;23;20016;-80
2022/03/13 03:07:57;;;;;;;18.00;9.73;;;8.20;99.90;;;;;;6192392;23;20008;-79
2022/03/13 03:10:23;;;;;;;22.77;10.73;;;8.10;99.90;;;;;;6190392;23;20075;-79
2022/03/13 03:12:48;;;;;;;17.65;9.80;;;8.10;99.90;;;;;;6216175;23;20031;-79
2022/03/13 03:15:17;;;;;;;17.23;10.05;;;8.00;99.90;;;;;;6188632;23;20059;-78
2022/03/13 03:17:43;;;;;;;18.33;10.48;;;8.00;99.90;;;;;;6189335;23;20066;-79
2022/03/13 03:20:10;;;;;;;19.65;10.45;;;7.90;99.90;;;;;;6215984;23;20039;-79
2022/03/13 03:22:36;;;;;;;16.52;9.32;;;7.90;99.90;;;;;;6196984;23;20096;-79
2022/03/13 03:25:02;;;;;;;21.50;10.70;;;7.90;99.90;;;;;;6221520;23;20012;-79
2022/03/13 03:27:30;;;;;;;21.23;10.25;;;7.90;99.90;;;;;;6221782;23;20472;-79
2022/03/13 03:29:56;;;;;;;19.65;10.40;;;7.80;99.90;;;;;;6247345;22;20023;-79
2022/03/13 03:32:22;;;;;;;20.02;10.60;;;7.80;99.90;;;;;;6248714;23;20015;-79
2022/03/13 03:34:47;;;;;;;19.30;10.57;;;7.80;99.90;;;;;;6247851;22;20051;-79
2022/03/13 03:37:13;;;;;;;23.00;10.65;;;7.70;99.90;;;;;;6248323;23;20020;-79
2022/03/13 03:39:38;;;;;;;20.15;11.48;;;7.60;99.90;;;;;;6221611;23;20018;-79
2022/03/13 03:42:04;;;;;;;18.58;10.30;;;7.50;99.90;;;;;;6222514;23;20107;-79
2022/03/13 03:44:30;;;;;;;19.63;10.60;;;7.50;99.90;;;;;;6248119;23;20015;-79
2022/03/13 03:46:55;;;;;;;16.85;9.75;;;7.40;99.90;;;;;;6222019;23;20039;-79
2022/03/13 03:49:21;;;;;;;19.02;9.45;;;7.30;99.90;;;;;;6221820;23;20012;-79
2022/03/13 03:51:46;;;;;;;19.92;9.75;;;7.30;99.90;;;;;;6221016;23;20020;-79
2022/03/13 03:54:14;;;;;;;19.17;10.32;;;7.20;99.90;;;;;;6248986;23;20099;-79
2022/03/13 03:56:40;;;;;;;18.45;11.10;;;7.20;99.90;;;;;;6222052;23;20012;-79
2022/03/13 03:59:06;;;;;;;18.30;11.27;;;7.10;99.90;;;;;;6248975;23;20051;-79
2022/03/13 04:01:37;;;;;;;21.83;11.02;;;7.00;99.90;;;;;;6248205;23;20008;-80
2022/03/13 04:04:04;;;;;;;18.23;9.80;;;7.00;99.90;;;;;;6221349;23;20051;-79
2022/03/13 04:06:30;;;;;;;18.20;10.30;;;6.90;99.90;;;;;;6221632;23;20016;-79
2022/03/13 04:08:55;;;;;;;20.98;10.80;;;6.90;99.90;;;;;;6221051;23;20026;-79
2022/03/13 04:11:21;;;;;;;18.10;10.32;;;6.90;99.90;;;;;;6247373;22;20503;-79
2022/03/13 04:13:47;;;;;;;21.65;11.88;;;6.80;99.90;;;;;;6248267;23;20020;-79
2022/03/13 04:16:12;;;;;;;18.00;10.57;;;6.90;99.90;;;;;;6248373;23;20094;-79
2022/03/13 04:18:38;;;;;;;23.38;10.45;;;6.80;99.90;;;;;;6216581;23;20044;-79
2022/03/13 04:21:05;;;;;;;19.65;10.45;;;6.80;99.90;;;;;;6190444;23;20047;-79
2022/03/13 04:23:33;;;;;;;21.08;11.75;;;6.70;99.90;;;;;;6191581;23;20385;-82
2022/03/13 04:25:59;;;;;;;19.95;11.32;;;6.80;99.90;;;;;;6166057;23;20023;-82
2022/03/13 04:28:25;;;;;;;18.85;10.73;;;6.70;99.90;;;;;;6190894;23;20452;-82
2022/03/13 04:30:53;;;;;;;19.63;11.40;;;6.70;99.90;;;;;;6189763;23;20043;-82
2022/03/13 04:33:21;;;;;;;28.67;12.20;;;6.60;99.90;;;;;;6216722;23;20044;-82
2022/03/13 04:35:46;;;;;;;18.98;10.65;;;6.60;99.90;;;;;;6191548;23;20067;-82
2022/03/13 04:38:12;;;;;;;26.75;12.73;;;6.50;99.90;;;;;;6192056;23;20016;-82
2022/03/13 04:40:38;;;;;;;22.70;11.50;;;6.50;99.90;;;;;;6165537;23;20393;-82
2022/03/13 04:43:03;;;;;;;20.88;11.82;;;6.40;99.90;;;;;;6190908;23;20505;-82
2022/03/13 04:45:29;;;;;;;22.38;11.73;;;6.40;99.90;;;;;;6216147;23;20450;-81
2022/03/13 04:47:55;;;;;;;20.52;10.93;;;6.20;99.90;;;;;;6216340;23;20013;-81
2022/03/13 04:50:21;;;;;;;16.13;10.10;;;6.30;99.90;;;;;;6187002;23;20016;-81
2022/03/13 04:52:47;;;;;;;19.80;11.25;;;6.40;99.90;;;;;;6214017;23;20017;-81
2022/03/13 04:55:13;;;;;;;22.08;11.52;;;6.40;99.90;;;;;;6188243;23;20036;-81
2022/03/13 04:57:38;;;;;;;19.05;10.55;;;6.40;99.90;;;;;;6190390;23;20036;-81
2022/03/13 05:00:05;;;;;;;21.77;12.88;;;6.40;99.90;;;;;;6216341;23;20445;-81
2022/03/13 05:02:31;;;;;;;19.45;11.07;;;6.40;99.90;;;;;;6190329;23;20027;-81
2022/03/13 05:04:59;;;;;;;21.63;11.60;;;6.30;99.90;;;;;;6190026;23;20019;-81
2022/03/13 05:07:26;;;;;;;18.90;11.30;;;6.30;99.90;;;;;;6190830;23;20013;-81
2022/03/13 05:09:52;;;;;;;22.52;11.45;;;6.30;99.90;;;;;;6215905;23;20315;-81
2022/03/13 05:12:24;;;;;;;24.60;12.55;;;6.20;99.90;;;;;;6187287;23;20052;-81
2022/03/13 05:14:50;;;;;;;;;;;6.20;99.90;;;;;;6162930;23;20023;-81
2022/03/13 05:17:15;;;;;;;22.02;11.38;;;6.20;99.90;;;;;;6162344;23;19983;-82
2022/03/13 05:19:41;;;;;;;24.77;12.35;;;6.10;99.90;;;;;;6199562;23;20008;-82
2022/03/13 05:22:07;;;;;;;20.38;12.48;;;6.10;99.90;;;;;;6213763;23;20009;-81
2022/03/13 05:24:33;;;;;;;18.67;10.35;;;6.10;99.90;;;;;;6212341;23;20343;-82
2022/03/13 05:26:58;;;;;;;22.02;11.75;;;6.10;99.90;;;;;;6212146;23;20012;-81
2022/03/13 05:29:24;;;;;;;18.83;10.68;;;6.00;99.90;;;;;;6213253;23;20012;-82
2022/03/13 05:31:49;;;;;;;22.42;11.20;;;6.00;99.90;;;;;;6212076;23;20096;-82
2022/03/13 05:34:15;;;;;;;21.92;11.25;;;6.00;99.90;;;;;;6187507;23;20054;-82
2022/03/13 05:36:40;;;;;;;23.48;11.80;;;5.90;99.90;;;;;;6212389;23;20020;-82
2022/03/13 05:39:06;;;;;;;19.90;11.35;;;5.90;99.90;;;;;;6212291;23;20512;-81
2022/03/13 05:41:33;;;;;;;24.67;12.55;;;5.80;99.90;;;;;;6218316;23;20035;-81
2022/03/13 05:43:59;;;;;;;25.00;12.50;;;5.80;99.90;;;;;;6215741;23;20031;-81
2022/03/13 05:46:25;;;;;;;22.77;12.50;;;5.70;99.90;;;;;;6214749;23;20027;-81
2022/03/13 05:48:50;;;;;;;22.80;12.32;;;5.70;99.90;;;;;;6214724;23;20048;-82
2022/03/13 05:51:16;;;;;;;21.52;11.45;;;5.70;99.90;;;;;;6188616;23;20047;-82
2022/03/13 05:53:41;;;;;;;20.42;12.32;;;5.80;99.90;;;;;;6188754;23;20021;-82
2022/03/13 05:56:07;;;;;;;20.08;11.68;;;5.60;99.90;;;;;;6189004;23;20013;-81
2022/03/13 05:58:33;;;;;;;27.35;13.63;;;5.60;99.90;;;;;;6188669;23;20052;-81
2022/03/13 06:01:05;;;;;;;20.90;11.68;;;5.50;99.90;;;;;;6215249;23;20074;-82
2022/03/13 06:03:32;;;;;;;22.80;11.95;;;5.50;99.90;;;;;;6188426;23;20023;-82
2022/03/13 06:06:00;;;;;;;23.85;12.65;;;5.50;99.90;;;;;;6213972;23;20008;-82
2022/03/13 06:08:26;;;;;;;23.58;11.50;;;5.50;99.90;;;;;;6214301;23;20366;-81
2022/03/13 06:10:52;;;;;;;25.27;12.18;;;5.50;99.90;;;;;;6192555;23;20017;-82
2022/03/13 06:13:18;;;;;;;25.95;13.80;;;5.40;99.90;;;;;;6191816;23;20444;-82
2022/03/13 06:15:43;;;;;;;22.27;12.80;;;5.40;99.90;;;;;;6191644;23;20480;-81
2022/03/13 06:18:10;;;;;;;24.48;13.82;;;5.50;99.90;;;;;;6191315;23;20016;-82
2022/03/13 06:20:36;;;;;;;22.10;12.15;;;5.40;99.90;;;;;;6217954;23;20349;-82
2022/03/13 06:23:03;;;;;;;21.42;12.07;;;5.40;99.90;;;;;;6166342;23;20123;-82
2022/03/13 06:25:29;;;;;;;23.10;12.68;;;5.50;99.90;;;;;;6167269;23;20009;-82
2022/03/13 06:27:56;;;;;;;23.13;12.52;;;5.50;99.90;;;;;;6217720;23;20012;-82
2022/03/13 06:30:21;;;;;;;23.02;11.60;;;5.50;99.90;;;;;;6191636;23;20008;-81
2022/03/13 06:32:50;;;;;;;20.25;11.38;;;5.70;99.90;;;;;;6191203;23;20346;-81
2022/03/13 06:35:20;;;;;;;26.65;12.73;;;5.60;99.90;;;;;;6191183;23;20016;-82
2022/03/13 06:37:46;;;;;;;24.70;12.45;;;5.70;99.90;;;;;;6166124;23;20108;-82
2022/03/13 06:40:15;;;;;;;19.08;11.27;;;5.80;99.90;;;;;;6218795;23;20009;-81
2022/03/13 06:42:41;;;;;;;25.20;11.85;;;5.80;99.90;;;;;;6217779;23;20021;-81
2022/03/13 06:45:10;;;;;;;21.50;11.77;;;5.90;99.90;;;;;;6166104;23;20009;-82
2022/03/13 06:47:39;;;;;;;26.38;12.23;;;6.00;99.90;;;;;;6191302;23;20008;-82
2022/03/13 06:50:05;;;;;;;20.90;11.52;;;6.10;99.90;;;;;;6188852;23;20454;-81
2022/03/13 06:52:30;;;;;;;25.98;12.75;;;6.20;99.90;;;;;;6188473;23;20008;-82
2022/03/13 06:54:56;;;;;;;18.30;10.43;;;6.30;99.90;;;;;;6188443;23;20096;-82
2022/03/13 06:57:21;;;;;;;20.02;11.48;;;6.30;99.90;;;;;;6163742;23;20020;-82
2022/03/13 06:59:47;;;;;;;19.40;10.57;;;6.40;99.90;;;;;;6163315;23;20008;-82
2022/03/13 07:02:13;;;;;;;22.05;11.38;;;6.50;99.90;;;;;;6163251;23;20523;-81
2022/03/13 07:04:39;;;;;;;20.45;10.75;;;6.60;99.90;;;;;;6163491;23;20013;-81
2022/03/13 07:07:05;;;;;;;19.38;10.50;;;6.70;99.90;;;;;;6188606;23;20009;-82
2022/03/13 07:09:32;;;;;;;19.67;10.43;;;6.80;99.90;;;;;;6167771;23;20009;-81
2022/03/13 07:11:58;;;;;;;18.35;9.80;;;6.90;99.90;;;;;;6166418;23;20073;-82
2022/03/13 07:14:24;;;;;;;16.67;9.13;;;7.00;99.90;;;;;;6218838;23;20012;-82
2022/03/13 07:16:50;;;;;;;16.42;9.32;;;7.10;99.90;;;;;;6165956;23;20346;-82
2022/03/13 07:19:16;;;;;;;19.42;11.18;;;7.20;99.90;;;;;;6203733;23;20026;-81
2022/03/13 07:21:42;;;;;;;18.90;10.20;;;7.30;99.90;;;;;;6220449;23;20086;-82
2022/03/13 07:24:08;;;;;;;17.63;10.38;;;7.40;99.90;;;;;;6197451;23;20019;-81
2022/03/13 07:26:33;;;;;;;17.23;9.45;;;7.40;99.90;;;;;;6196609;23;20038;-82
2022/03/13 07:29:02;;;;;;;19.13;10.05;;;7.50;99.90;;;;;;6249323;23;20016;-82
2022/03/13 07:31:31;;;;;;;17.83;10.40;;;7.70;99.90;;;;;;6193175;23;20437;-82
2022/03/13 07:33:57;;;;;;;19.60;11.32;;;7.80;99.90;;;;;;6193194;23;20016;-81
2022/03/13 07:36:23;;;;;;;18.13;10.68;;;7.90;99.90;;;;;;6195445;23;20047;-81
2022/03/13 07:38:49;;;;;;;19.85;9.23;;;8.00;99.90;;;;;;6196546;23;20012;-81
2022/03/13 07:41:15;;;;;;;22.85;9.77;;;8.10;99.90;;;;;;6247631;23;20016;-82
2022/03/13 07:43:40;;;;;;;19.63;10.18;;;8.20;99.90;;;;;;6220819;23;20019;-82
2022/03/13 07:46:06;;;;;;;16.75;10.18;;;8.20;99.90;;;;;;6193722;23;20020;-81
2022/03/13 07:48:35;;;;;;;29.73;10.15;;;8.30;99.90;;;;;;6221533;23;20012;-82
2022/03/13 07:51:04;;;;;;;16.27;9.35;;;8.30;99.90;;;;;;6249102;23;20039;-82
2022/03/13 07:53:30;;;;;;;23.50;10.05;;;8.40;99.90;;;;;;6220560;23;20463;-82
2022/03/13 07:55:55;;;;;;;17.50;8.60;;;8.60;99.90;;;;;;6219783;23;20051;-82
2022/03/13 07:58:21;;;;;;;21.23;10.38;;;8.90;99.90;;;;;;6217945;23;20015;-81
2022/03/13 08:00:47;;;;;;;17.00;9.75;;;9.50;99.90;;;;;;6247092;22;20012;-81
2022/03/13 08:03:17;;;;;;;16.20;8.70;;;10.00;99.90;;;;;;6197423;23;20090;-82
2022/03/13 08:05:43;;;;;;;16.20;9.45;;;10.20;99.90;;;;;;6220516;23;20083;-83
2022/03/13 08:08:09;;;;;;;13.65;8.63;;;10.00;99.90;;;;;;6192575;23;20071;-82
2022/03/13 08:10:34;;;;;;;16.38;8.93;;;9.80;99.90;;;;;;6192030;23;20457;-81
2022/03/13 08:13:00;;;;;;;16.13;8.60;;;9.70;99.90;;;;;;6192491;23;20016;-81
2022/03/13 08:15:26;;;;;;;17.00;9.85;;;9.70;99.90;;;;;;6192692;23;20020;-82
2022/03/13 08:17:52;;;;;;;19.95;9.77;;;10.00;99.90;;;;;;6192556;23;20023;-81
2022/03/13 08:20:17;;;;;;;18.20;9.00;;;10.20;99.90;;;;;;6191868;23;20345;-81
2022/03/13 08:22:43;;;;;;;14.43;8.85;;;10.60;99.90;;;;;;6192379;23;20042;-82
2022/03/13 08:25:10;;;;;;;16.40;8.93;;;10.90;99.90;;;;;;6192411;23;20519;-81
2022/03/13 08:27:36;;;;;;;13.98;8.43;;;11.30;98.30;;;;;;6217989;23;20027;-82
2022/03/13 08:30:03;;;;;;;19.63;9.68;;;11.40;95.90;;;;;;6191798;23;20406;-82
2022/03/13 08:32:29;;;;;;;16.23;8.88;;;11.40;93.80;;;;;;6192490;23;20015;-81
2022/03/13 08:34:56;;;;;;;17.08;9.27;;;11.50;94.50;;;;;;6192678;23;20214;-81
2022/03/13 08:37:22;;;;;;;14.13;9.20;;;11.40;91.40;;;;;;6193030;23;20019;-82
2022/03/13 08:39:47;;;;;;;17.92;9.25;;;11.40;89.30;;;;;;6191929;23;20087;-81
2022/03/13 08:42:13;;;;;;;16.83;8.88;;;11.30;90.20;;;;;;6192729;23;20386;-82
2022/03/13 08:44:39;;;;;;;16.48;9.55;;;11.40;87.10;;;;;;6192331;23;20016;-81
2022/03/13 08:47:04;;;;;;;17.30;9.13;;;11.40;84.20;;;;;;6192888;23;20027;-82
2022/03/13 08:49:30;;;;;;;17.77;8.82;;;11.30;82.40;;;;;;6191574;23;20388;-81
2022/03/13 08:51:56;;;;;;;14.77;8.57;;;11.40;81.00;;;;;;6192347;23;20020;-82
2022/03/13 08:54:22;;;;;;;16.42;8.77;;;11.40;76.00;;;;;;6192880;23;20019;-83
2022/03/13 08:56:50;;;;;;;17.95;9.05;;;11.40;75.90;;;;;;6192174;23;20022;-82
2022/03/13 08:59:20;;;;;;;16.55;8.57;;;11.50;72.00;;;;;;6216910;23;20012;-83
2022/03/13 09:01:47;;;;;;;15.77;8.75;;;11.60;73.60;;;;;;6216245;23;20453;-85
2022/03/13 09:04:13;;;;;;;15.43;8.90;;;11.80;71.40;;;;;;6192027;23;20027;-85
2022/03/13 09:06:39;;;;;;;14.63;8.55;;;12.00;70.00;;;;;;6192484;23;20099;-85
2022/03/13 09:09:08;;;;;;;15.63;8.68;;;12.20;68.60;;;;;;6167743;23;20016;-86
2022/03/13 09:11:38;;;;;;;14.00;9.13;;;12.40;67.90;;;;;;6191986;23;20016;-86
2022/03/13 09:14:06;;;;;;;15.55;8.32;;;12.50;66.40;;;;;;6217160;23;20019;-85
2022/03/13 09:16:37;;;;;;;15.10;9.65;;;12.60;65.30;;;;;;6193263;23;20019;-83
2022/03/13 09:19:05;;;;;;;18.70;9.60;;;12.70;64.90;;;;;;6193720;23;20638;-83
2022/03/13 09:21:34;;;;;;;18.20;8.88;;;12.90;63.70;;;;;;6194371;23;20008;-83
2022/03/13 09:24:01;;;;;;;17.27;8.57;;;13.10;63.90;;;;;;6171168;23;20028;-83
2022/03/13 09:26:34;;;;;;;14.38;8.45;;;13.30;62.70;;;;;;6196096;23;20014;-83
2022/03/13 09:29:33;;;;;;;15.60;9.60;;;13.20;61.20;;;;;;6195737;23;20008;-85
2022/03/13 09:32:12;;;;;;;14.50;9.68;;;13.20;60.20;;;;;;6227817;23;20016;-81
2022/03/13 09:35:23;;;;;;;13.40;8.60;;;13.30;63.50;;;;;;6194824;22;20019;-81
2022/03/13 09:39:13;;;;;;;;;;;;;;;;;;;;;
2022/03/13 09:52:48;;;;;;;18.27;9.80;;;14.80;51.10;;;;;;6155378;23;20032;-80
2022/03/13 10:06:11;;;;;;;16.48;9.30;;;16.20;51.80;;;;;;6125329;23;20022;-82
2022/03/13 10:08:37;;;;;;;16.60;9.18;;;16.40;51.40;;;;;;6099900;23;20652;-82
2022/03/13 10:11:30;;;;;;;14.77;9.23;;;16.60;53.90;;;;;;6101140;23;20064;-81
2022/03/13 10:14:36;;;;;;;;;;;;;;;;;;;;;
2022/03/13 10:17:39;;;;;;;16.05;9.25;;;16.80;46.70;;;;;;6039833;23;20105;-82
2022/03/13 10:20:38;;;;;;;17.77;10.73;;;16.80;46.70;;;;;;6042233;23;20023;-82
2022/03/13 10:23:24;;;;;;;18.75;9.60;;;16.80;47.70;;;;;;6118795;23;20021;-83
2022/03/13 10:26:15;;;;;;;17.80;9.90;;;16.80;50.20;;;;;;6189305;23;20358;-83
2022/03/13 10:28:59;;;;;;;15.13;9.40;;;16.30;46.50;;;;;;6173463;23;20017;-83
2022/03/13 10:35:29;;;;;;;16.25;10.40;;;15.90;51.90;;;;;;6037147;23;20715;-83
2022/03/13 10:37:55;;;;;;;17.27;10.00;;;15.90;50.10;;;;;;6171997;23;20071;-82
2022/03/13 10:40:24;;;;;;;18.17;10.25;;;15.90;53.30;;;;;;6191863;23;20013;-83
2022/03/13 10:42:58;;;;;;;14.90;10.38;;;15.80;51.30;;;;;;6193696;23;20350;-83
2022/03/13 10:45:42;;;;;;;16.63;10.30;;;15.70;53.00;;;;;;6193172;23;20037;-83
2022/03/13 10:48:50;;;;;;;15.13;9.63;;;15.60;51.50;;;;;;6191513;23;20311;-82
2022/03/13 10:55:05;;;;;;;14.13;9.53;;;15.60;49.20;;;;;;6215857;23;20059;-83
2022/03/13 10:57:31;;;;;;;16.42;9.80;;;15.70;50.60;;;;;;6164252;23;20494;-84
2022/03/13 11:00:09;;;;;;;15.77;10.18;;;15.80;52.80;;;;;;6189422;23;20058;-83
2022/03/13 11:02:36;;;;;;;16.05;10.63;;;15.70;50.10;;;;;;6188991;23;20327;-83
2022/03/13 11:05:02;;;;;;;18.88;10.93;;;15.70;52.60;;;;;;6188553;23;20091;-83
2022/03/13 11:07:27;;;;;;;15.73;10.27;;;15.70;52.20;;;;;;6188896;23;20449;-82
2022/03/13 11:09:54;;;;;;;16.52;10.00;;;15.70;51.80;;;;;;6214991;23;20019;-83
2022/03/13 11:12:21;;;;;;;17.63;10.35;;;15.80;51.90;;;;;;6189266;23;20019;-83
2022/03/13 11:14:49;;;;;;;20.92;10.15;;;15.80;51.40;;;;;;6188689;23;20050;-83
2022/03/13 11:17:20;;;;;;;16.25;9.77;;;15.80;52.10;;;;;;6189380;23;20024;-83
2022/03/13 11:19:52;;;;;;;16.27;9.88;;;15.90;51.50;;;;;;6190177;23;20016;-83
2022/03/13 11:22:21;;;;;;;16.92;10.23;;;15.90;51.90;;;;;;6189467;23;20009;-82
2022/03/13 11:24:55;;;;;;;18.35;10.95;;;15.90;52.30;;;;;;6189970;23;20020;-84
2022/03/13 11:27:24;;;;;;;21.13;10.68;;;15.80;51.80;;;;;;6190750;23;20158;-83
2022/03/13 11:29:53;;;;;;;18.45;9.98;;;15.80;51.70;;;;;;6163821;23;20013;-83
2022/03/13 11:32:40;;;;;;;18.08;9.77;;;15.80;52.60;;;;;;6188808;23;20067;-83
2022/03/13 11:35:11;;;;;;;17.58;10.30;;;15.80;50.00;;;;;;6188957;23;20753;-83
2022/03/13 11:37:49;;;;;;;18.77;10.95;;;15.80;51.70;;;;;;6214325;23;20059;-81
2022/03/13 11:41:15;;;;;;;;;;;;;;;;;;;;;
2022/03/13 11:44:00;;;;;;;18.98;10.25;;;15.90;51.20;;;;;;6224263;22;20020;-84
2022/03/13 11:50:59;;;;;;;15.63;9.40;;;15.90;51.00;;;;;;6220094;23;20099;-83
2022/03/13 11:54:04;;;;;;;16.13;9.85;;;15.90;51.20;;;;;;6192909;23;20070;-84
2022/03/13 12:01:04;;;;;;;17.17;9.45;;;15.70;52.00;;;;;;6232849;23;20047;-83
2022/03/13 12:11:54;;;;;;;20.33;10.40;;;15.90;52.40;;;;;;6070060;23;20029;-84
2022/03/13 12:15:08;;;;;;;16.23;9.70;;;16.00;51.70;;;;;;6103837;23;20466;-83
2022/03/13 12:17:49;;;;;;;16.77;10.43;;;16.10;53.90;;;;;;6219708;23;20023;-84
2022/03/13 12:20:28;;;;;;;16.60;9.73;;;16.20;52.90;;;;;;6196198;23;20024;-82
2022/03/13 12:23:04;;;;;;;19.10;11.20;;;16.10;52.60;;;;;;6194870;23;20023;-83
2022/03/13 12:25:32;;;;;;;17.92;10.45;;;16.20;53.60;;;;;;6220039;23;20015;-83
2022/03/13 12:28:05;;;;;;;18.50;10.45;;;16.20;53.20;;;;;;6221888;23;20441;-83
2022/03/13 12:34:18;;;;;;;18.30;10.63;;;16.20;52.10;;;;;;6217740;23;20074;-83
2022/03/13 12:37:11;;;;;;;14.98;9.27;;;16.30;52.20;;;;;;6241888;23;20012;-84
2022/03/13 12:40:13;;;;;;;16.88;10.55;;;16.30;51.20;;;;;;6096689;23;20041;-84
2022/03/13 12:43:09;;;;;;;17.30;10.18;;;16.30;51.80;;;;;;6021451;23;20019;-84
2022/03/13 12:49:36;;;;;;;16.63;9.45;;;16.40;51.80;;;;;;6124142;23;20009;-82
2022/03/13 12:59:54;;;;;;;14.88;9.35;;;16.50;51.40;;;;;;6248883;23;20007;-84
2022/03/13 13:03:37;;;;;;;16.45;9.38;;;16.50;50.20;;;;;;6249640;23;20019;-84
2022/03/13 13:06:58;;;;;;;16.65;9.73;;;16.60;51.10;;;;;;6196380;23;20021;-83
2022/03/13 13:17:29;;;;;;;12.20;8.45;;;16.70;51.20;;;;;;6189673;23;20016;-82
2022/03/13 13:20:46;;;;;;;;;;;;;;;;;;;;;
2022/03/13 13:28:34;;;;;;;13.75;7.60;;;16.70;51.90;;;;;;6283441;22;20020;-79
2022/03/13 13:31:00;;;;;;;17.55;8.50;;;16.60;51.60;;;;;;6257366;22;20098;-80
2022/03/13 13:33:32;;;;;;;14.07;8.20;;;16.70;51.60;;;;;;6232942;22;20073;-83
2022/03/13 13:36:00;;;;;;;;;;;16.70;50.90;;;;;;6229916;22;20007;-79
2022/03/13 13:38:26;;;;;;;14.57;8.05;;;16.70;51.30;;;;;;6255389;22;19918;-79
2022/03/13 13:40:51;;;;;;;14.00;8.07;;;16.60;51.70;;;;;;6228712;22;20352;-80
2022/03/13 13:43:34;;;;;;;14.55;8.35;;;16.50;51.40;;;;;;6225856;22;20015;-78
2022/03/13 13:46:09;;;;;;;14.93;8.35;;;16.60;50.60;;;;;;6253711;22;20011;-81
2022/03/13 13:48:43;;;;;;;14.20;8.75;;;16.60;50.90;;;;;;6227674;22;20012;-82
2022/03/13 13:51:23;;;;;;;13.05;8.82;;;16.70;51.30;;;;;;6254144;22;20035;-80
2022/03/13 13:54:14;;;;;;;16.00;9.48;;;16.80;51.20;;;;;;6254162;22;20011;-82
2022/03/13 13:56:54;;;;;;;13.98;8.00;;;16.80;51.10;;;;;;6254630;22;20015;-81
2022/03/13 13:59:26;;;;;;;12.35;7.63;;;16.80;51.50;;;;;;6255650;22;20020;-80
2022/03/13 14:02:08;;;;;;;14.40;8.48;;;16.80;51.70;;;;;;6255035;22;20008;-81
2022/03/13 14:04:35;;;;;;;13.88;7.38;;;16.80;51.70;;;;;;6256174;22;20016;-80
2022/03/13 14:07:01;;;;;;;14.13;8.20;;;16.80;52.10;;;;;;6256039;22;20031;-82
2022/03/13 14:09:27;;;;;;;10.23;6.53;;;16.80;51.80;;;;;;6229235;22;20016;-79
2022/03/13 14:11:53;;;;;;;11.10;6.63;;;16.80;51.70;;;;;;6254084;22;20026;-81
2022/03/13 14:14:19;;;;;;;11.57;6.80;;;16.80;51.50;;;;;;6257314;22;20019;-81